Maersk Rio Grande — V2BG1 — position and weather

sailwx.info

Track history (hours):
 
Tides and Currents Weather Stations Pressure Air Temp Water Temp Dewpoint Dewpoint Depression Visibility Wind Speed Wind Dir Waves Ship Positions

Maersk Rio Grande

Last reported at 2017-Nov-23 10:44 UTC. Time now 2017-Nov-25 04:15 UTC.
Position N 43°21' E 005°17'.

Length 161.1 m; beam 25 m; draft 9.5 m.

Type: Ship (hazmat cat A). MMSI: 304813000.

Date/timePositionNaut miles runAvg speedWind from/ knotsBaromVisibWave heightAir tempDewpointWater temp
2017-Nov-23 10:44N 43°21' E 005°17'0 0.0
2017-Nov-23 10:29N 43°21' E 005°17'0 0.0
2017-Nov-23 09:44N 43°21' E 005°17'0 0.0
2017-Nov-23 09:26N 43°21' E 005°17'0 0.0
2017-Nov-23 08:32N 43°21' E 005°17'0 0.1
2017-Nov-23 08:14N 43°21' E 005°17'0 0.1
2017-Nov-23 07:47N 43°21' E 005°17'0 0.1
2017-Nov-23 07:18N 43°21' E 005°17'1 3.8
2017-Nov-23 07:00N 43°20' E 005°16'4 8.8
2017-Nov-23 06:31N 43°17' E 005°12'611.2
2017-Nov-23 06:01N 43°12' E 005°10'1215.0
2017-Nov-23 05:14N 43°03' E 004°60'416.5
2017-Nov-23 05:00N 42°60' E 004°56'  
2017-Nov-19 11:47N 36°00' W 005°13'517.3
2017-Nov-19 11:30N 35°59' W 005°19'816.9
2017-Nov-19 11:00N 35°57' W 005°29'17510.0
2017-Nov-18 17:33N 33°36' W 007°36'172 7.6
2017-Nov-17 18:48N 35°58' W 005°36'515.6
2017-Nov-17 18:31N 35°59' W 005°31'9 0.8
2017-Nov-17 07:50N 36°05' W 005°23'310.4
2017-Nov-17 07:30N 36°06' W 005°19'1 1.1
2017-Nov-17 06:46N 36°05' W 005°19'1 3.8
2017-Nov-17 06:30N 36°04' W 005°20'3 5.8
2017-Nov-17 06:00N 36°05' W 005°17'713.1
2017-Nov-17 05:30N 36°07' W 005°09'8 0.7
2017-Nov-16 17:49N 36°05' W 005°18'3 8.3
2017-Nov-16 17:30N 36°05' W 005°21'510.3
2017-Nov-16 17:00N 36°06' W 005°15'  
Track history (hours):
 
Tides and Currents Weather Stations Pressure Air Temp Water Temp Dewpoint Dewpoint Depression Visibility Wind Speed Wind Dir Waves Ship Positions

Maersk Rio Grande

Last reported at 2017-Nov-23 10:44 UTC. Time now 2017-Nov-25 04:15 UTC.
Position N 43°21' E 005°17'.

Length 161.1 m; beam 25 m; draft 9.5 m.

Type: Ship (hazmat cat A). MMSI: 304813000.

Date/timePositionNaut miles runAvg speedWind from/ knotsBaromVisibWave heightAir tempDewpointWater temp
2017-Nov-23 10:44N 43°21' E 005°17'0 0.0
2017-Nov-23 10:29N 43°21' E 005°17'0 0.0
2017-Nov-23 09:44N 43°21' E 005°17'0 0.0
2017-Nov-23 09:26N 43°21' E 005°17'0 0.0
2017-Nov-23 08:32N 43°21' E 005°17'0 0.1
2017-Nov-23 08:14N 43°21' E 005°17'0 0.1
2017-Nov-23 07:47N 43°21' E 005°17'0 0.1
2017-Nov-23 07:18N 43°21' E 005°17'1 3.8
2017-Nov-23 07:00N 43°20' E 005°16'4 8.8
2017-Nov-23 06:31N 43°17' E 005°12'611.2
2017-Nov-23 06:01N 43°12' E 005°10'1215.0
2017-Nov-23 05:14N 43°03' E 004°60'416.5
2017-Nov-23 05:00N 42°60' E 004°56'  
2017-Nov-19 11:47N 36°00' W 005°13'517.3
2017-Nov-19 11:30N 35°59' W 005°19'816.9
2017-Nov-19 11:00N 35°57' W 005°29'17510.0
2017-Nov-18 17:33N 33°36' W 007°36'172 7.6
2017-Nov-17 18:48N 35°58' W 005°36'515.6
2017-Nov-17 18:31N 35°59' W 005°31'9 0.8
2017-Nov-17 07:50N 36°05' W 005°23'310.4
2017-Nov-17 07:30N 36°06' W 005°19'1 1.1
2017-Nov-17 06:46N 36°05' W 005°19'1 3.8
2017-Nov-17 06:30N 36°04' W 005°20'3 5.8
2017-Nov-17 06:00N 36°05' W 005°17'713.1
2017-Nov-17 05:30N 36°07' W 005°09'8 0.7
2017-Nov-16 17:49N 36°05' W 005°18'3 8.3
2017-Nov-16 17:30N 36°05' W 005°21'510.3
2017-Nov-16 17:00N 36°06' W 005°15'  

Dump ship's entire track history